createdAt,value
2022-11-30T00:00:54.862Z,3.00
2022-11-30T00:01:56.772Z,2.85
2022-11-30T00:02:58.667Z,2.78
2022-11-30T00:04:00.436Z,2.63
2022-11-30T00:05:02.105Z,2.67
2022-11-30T00:06:06.094Z,2.75
2022-11-30T00:07:08.203Z,3.25
2022-11-30T00:08:09.890Z,2.67
2022-11-30T00:09:11.641Z,2.97
2022-11-30T00:10:13.576Z,2.67
2022-11-30T00:11:18.485Z,2.78
2022-11-30T00:12:20.234Z,2.90
2022-11-30T00:13:21.976Z,2.80
2022-11-30T00:14:23.666Z,2.78
2022-11-30T00:15:25.369Z,2.60
2022-11-30T00:16:27.685Z,2.63
2022-11-30T00:17:29.493Z,2.60
2022-11-30T00:18:31.376Z,3.00
2022-11-30T00:19:33.162Z,3.03
2022-11-30T00:20:34.831Z,2.78
2022-11-30T00:21:36.654Z,2.42
2022-11-30T00:22:38.336Z,2.50
2022-11-30T00:23:41.937Z,2.63
2022-11-30T00:24:43.684Z,2.70
2022-11-30T00:25:45.547Z,2.60
2022-11-30T00:26:47.263Z,2.60
2022-11-30T00:27:48.969Z,2.72
2022-11-30T00:28:50.996Z,2.35
2022-11-30T00:29:52.687Z,2.60
2022-11-30T00:31:02.594Z,2.67
2022-11-30T00:32:04.497Z,2.50
2022-11-30T00:33:06.226Z,2.40
2022-11-30T00:34:07.940Z,2.60
2022-11-30T00:35:09.717Z,2.78
2022-11-30T00:36:20.123Z,2.45
2022-11-30T00:37:22.419Z,2.53
2022-11-30T00:38:24.484Z,2.65
2022-11-30T00:39:28.694Z,2.45
2022-11-30T00:40:34.257Z,2.80
2022-11-30T00:41:35.941Z,2.50
2022-11-30T00:42:37.673Z,2.30
2022-11-30T00:43:39.512Z,2.58
2022-11-30T00:44:41.221Z,3.00
2022-11-30T00:45:43.125Z,2.80
2022-11-30T00:46:44.966Z,2.40
2022-11-30T00:47:46.725Z,2.70
2022-11-30T00:48:48.468Z,2.50
2022-11-30T00:49:50.248Z,2.72
2022-11-30T00:50:52.064Z,3.05
2022-11-30T00:51:53.828Z,2.60
2022-11-30T00:52:55.740Z,2.40
2022-11-30T00:53:57.436Z,2.80
2022-11-30T00:55:01.677Z,3.05
2022-11-30T00:56:06.811Z,2.90
2022-11-30T00:57:08.604Z,2.70
2022-11-30T00:58:10.657Z,2.67
2022-11-30T00:59:12.459Z,2.40
2022-11-30T01:00:14.582Z,2.65
2022-11-30T01:01:16.772Z,2.65
2022-11-30T01:02:18.704Z,2.65
2022-11-30T01:03:20.433Z,2.60
2022-11-30T01:04:22.113Z,3.13
2022-11-30T01:05:23.788Z,2.47
2022-11-30T01:06:25.553Z,2.60
2022-11-30T01:07:27.240Z,2.90
2022-11-30T01:08:29.032Z,2.90
2022-11-30T01:09:30.918Z,2.90
2022-11-30T01:10:34.644Z,3.00
2022-11-30T01:11:36.380Z,2.90
2022-11-30T01:12:38.101Z,2.90
2022-11-30T01:13:39.900Z,2.83
2022-11-30T01:14:41.699Z,3.20
2022-11-30T01:15:44.451Z,3.05
2022-11-30T01:16:46.204Z,3.03
2022-11-30T01:17:48.686Z,2.90
2022-11-30T01:18:50.761Z,3.20
2022-11-30T01:19:52.565Z,3.40
2022-11-30T01:20:54.240Z,3.25
2022-11-30T01:21:55.977Z,3.20
2022-11-30T01:22:57.791Z,3.05
2022-11-30T01:23:59.478Z,3.33
2022-11-30T01:25:01.216Z,2.97
2022-11-30T01:26:02.964Z,2.92
2022-11-30T01:27:04.778Z,3.38
2022-11-30T01:28:09.188Z,3.00
2022-11-30T01:29:10.856Z,2.90
2022-11-30T01:30:12.836Z,3.58
2022-11-30T01:31:15.237Z,2.97
2022-11-30T01:32:16.961Z,2.97
2022-11-30T01:33:18.690Z,2.78
2022-11-30T01:34:21.320Z,3.15
2022-11-30T01:35:23.194Z,3.03
2022-11-30T01:36:26.670Z,3.13
2022-11-30T01:37:30.204Z,3.03
2022-11-30T01:38:39.995Z,2.92
2022-11-30T01:39:41.656Z,2.85
2022-11-30T01:40:50.457Z,3.05
2022-11-30T01:41:53.714Z,3.13
2022-11-30T01:42:55.670Z,2.70
2022-11-30T01:44:06.388Z,3.05
2022-11-30T01:45:12.681Z,2.78
2022-11-30T01:46:28.193Z,2.83
2022-11-30T01:47:41.139Z,2.65
2022-11-30T01:48:42.846Z,3.10
2022-11-30T01:49:48.589Z,3.00
2022-11-30T01:50:50.445Z,2.90
2022-11-30T01:51:58.389Z,2.88
2022-11-30T01:53:02.963Z,3.08
2022-11-30T01:54:08.213Z,2.88
2022-11-30T01:55:16.026Z,2.95
2022-11-30T01:56:18.245Z,3.03
2022-11-30T01:57:31.509Z,2.80
2022-11-30T01:58:34.915Z,3.03
2022-11-30T01:59:36.743Z,2.85
2022-11-30T02:00:44.686Z,2.65
2022-11-30T02:01:47.287Z,2.47
2022-11-30T02:03:13.704Z,2.50
2022-11-30T02:04:31.355Z,2.30
2022-11-30T02:05:36.503Z,2.80
2022-11-30T02:06:38.185Z,2.50
2022-11-30T02:07:41.371Z,2.95
2022-11-30T02:08:43.562Z,2.60
2022-11-30T02:09:45.641Z,2.80
2022-11-30T02:10:53.610Z,2.60
2022-11-30T02:11:56.538Z,2.70
2022-11-30T02:13:22.627Z,3.30
2022-11-30T02:14:31.833Z,3.05
2022-11-30T02:15:44.758Z,2.80
2022-11-30T02:17:02.507Z,3.03
2022-11-30T02:18:26.017Z,2.90
2022-11-30T02:19:48.665Z,3.13
2022-11-30T02:21:00.719Z,2.78
2022-11-30T02:22:36.244Z,3.20
2022-11-30T02:24:03.518Z,3.38
2022-11-30T02:25:31.036Z,3.33
2022-11-30T02:26:35.337Z,3.42
2022-11-30T02:27:52.542Z,3.15
2022-11-30T02:29:03.550Z,3.30
2022-11-30T02:30:13.769Z,3.40
2022-11-30T02:31:23.837Z,3.42
2022-11-30T02:32:36.487Z,3.42
2022-11-30T02:33:40.981Z,3.80
2022-11-30T02:34:46.331Z,3.15
2022-11-30T02:35:55.325Z,3.25
2022-11-30T02:37:00.776Z,3.30
2022-11-30T02:38:05.014Z,3.42
2022-11-30T02:39:07.562Z,2.90
2022-11-30T02:40:10.974Z,3.05
2022-11-30T02:41:12.707Z,2.97
2022-11-30T02:42:15.185Z,3.10
2022-11-30T02:43:19.701Z,2.70
2022-11-30T02:44:22.964Z,2.50
2022-11-30T02:45:46.924Z,2.80
2022-11-30T02:47:10.942Z,2.90
2022-11-30T02:48:18.576Z,2.33
2022-11-30T02:49:30.865Z,2.45
2022-11-30T02:50:44.348Z,2.67
2022-11-30T02:51:48.432Z,2.53
2022-11-30T02:52:52.610Z,3.05
2022-11-30T02:53:55.243Z,2.58
2022-11-30T02:55:01.912Z,3.13
2022-11-30T02:56:04.182Z,2.80
2022-11-30T02:57:05.892Z,3.35
2022-11-30T02:58:07.919Z,2.92
2022-11-30T02:59:09.956Z,3.03
2022-11-30T03:00:13.388Z,3.22
2022-11-30T03:01:15.089Z,3.70
2022-11-30T03:02:16.909Z,3.47
2022-11-30T03:03:18.623Z,3.90
2022-11-30T03:04:20.326Z,3.65
2022-11-30T03:05:22.138Z,3.20
2022-11-30T03:06:23.881Z,3.28
2022-11-30T03:07:25.644Z,3.60
2022-11-30T03:08:27.421Z,3.70
2022-11-30T03:09:29.149Z,3.53
2022-11-30T03:10:30.841Z,3.83
2022-11-30T03:11:33.461Z,4.00
2022-11-30T03:12:35.350Z,3.47
2022-11-30T03:13:37.020Z,3.30
2022-11-30T03:14:38.712Z,3.80
2022-11-30T03:15:40.695Z,3.47
2022-11-30T03:16:44.227Z,3.92
2022-11-30T03:17:46.030Z,3.70
2022-11-30T03:18:47.780Z,3.70
2022-11-30T03:19:49.521Z,3.38
2022-11-30T03:20:51.216Z,3.58
2022-11-30T03:21:52.921Z,3.70
2022-11-30T03:22:54.662Z,3.95
2022-11-30T03:23:56.539Z,3.85
2022-11-30T03:24:58.200Z,3.70
2022-11-30T03:25:59.948Z,3.75
2022-11-30T03:27:01.965Z,3.47
2022-11-30T03:28:04.401Z,3.92
2022-11-30T03:29:06.336Z,3.38
2022-11-30T03:30:08.734Z,3.83
2022-11-30T03:31:13.854Z,4.05
2022-11-30T03:32:15.715Z,3.53
2022-11-30T03:33:18.285Z,3.60
2022-11-30T03:34:19.989Z,3.58
2022-11-30T03:35:21.680Z,3.67
2022-11-30T03:36:23.479Z,3.50
2022-11-30T03:37:25.171Z,3.72
2022-11-30T03:38:27.045Z,3.70
2022-11-30T03:39:28.982Z,3.90
2022-11-30T03:40:30.681Z,3.70
2022-11-30T03:41:32.458Z,3.50
2022-11-30T03:42:34.226Z,3.65
2022-11-30T03:43:36.178Z,3.65
2022-11-30T03:44:37.853Z,3.78
2022-11-30T03:45:39.550Z,3.90
2022-11-30T03:46:41.318Z,3.60
2022-11-30T03:47:43.736Z,3.67
2022-11-30T03:48:45.696Z,3.38
2022-11-30T03:49:47.470Z,3.40
2022-11-30T03:50:50.344Z,3.40
2022-11-30T03:51:52.047Z,3.58
2022-11-30T03:52:53.720Z,3.40
2022-11-30T03:53:55.615Z,3.08
2022-11-30T03:54:57.405Z,3.55
2022-11-30T03:56:02.531Z,3.55
2022-11-30T03:57:04.283Z,3.28
2022-11-30T03:58:06.060Z,3.30
2022-11-30T03:59:07.891Z,3.30
2022-11-30T04:00:10.528Z,3.58
2022-11-30T04:01:17.831Z,3.20
2022-11-30T04:02:19.651Z,3.70
2022-11-30T04:03:21.414Z,3.20
2022-11-30T04:04:23.268Z,3.63
2022-11-30T04:05:24.972Z,3.45
2022-11-30T04:06:26.699Z,3.05
2022-11-30T04:07:28.741Z,3.05
2022-11-30T04:08:31.227Z,3.22
2022-11-30T04:09:32.874Z,3.40
2022-11-30T04:10:34.690Z,3.33
2022-11-30T04:11:36.455Z,2.92
2022-11-30T04:12:38.115Z,3.22
2022-11-30T04:13:40.682Z,3.20
2022-11-30T04:14:42.357Z,3.33
2022-11-30T04:15:45.854Z,2.92
2022-11-30T04:16:47.719Z,2.90
2022-11-30T04:17:49.451Z,3.60
2022-11-30T04:18:51.117Z,3.10
2022-11-30T04:19:52.825Z,2.92
2022-11-30T04:20:56.230Z,3.17
2022-11-30T04:21:57.965Z,3.13
2022-11-30T04:22:59.657Z,3.00
2022-11-30T04:24:01.409Z,3.63
2022-11-30T04:25:03.494Z,3.13
2022-11-30T04:26:06.964Z,3.40
2022-11-30T04:27:08.637Z,3.03
2022-11-30T04:28:11.098Z,2.97
2022-11-30T04:29:12.937Z,2.92
2022-11-30T04:30:15.623Z,2.78
2022-11-30T04:31:17.376Z,2.90
2022-11-30T04:32:19.097Z,2.60
2022-11-30T04:33:20.867Z,3.05
2022-11-30T04:34:22.782Z,2.83
2022-11-30T04:35:24.657Z,2.60
2022-11-30T04:36:26.444Z,2.47
2022-11-30T04:37:28.210Z,2.55
2022-11-30T04:38:30.786Z,2.70
2022-11-30T04:39:35.693Z,3.13
2022-11-30T04:40:41.763Z,2.97
2022-11-30T04:41:43.554Z,2.75
2022-11-30T04:42:45.285Z,2.60
2022-11-30T04:43:47.041Z,2.67
2022-11-30T04:44:48.868Z,2.40
2022-11-30T04:45:51.277Z,2.67
2022-11-30T04:46:53.107Z,2.50
2022-11-30T04:47:54.873Z,2.47
2022-11-30T04:48:56.628Z,2.33
2022-11-30T04:49:58.522Z,2.47
2022-11-30T04:51:06.258Z,2.53
2022-11-30T04:52:08.072Z,2.58
2022-11-30T04:53:09.929Z,2.50
2022-11-30T04:54:11.605Z,2.60
2022-11-30T04:55:13.471Z,2.33
2022-11-30T04:56:15.227Z,2.30
2022-11-30T04:57:16.997Z,2.28
2022-11-30T04:58:18.755Z,2.55
2022-11-30T04:59:20.489Z,2.33
2022-11-30T05:00:22.698Z,2.35
2022-11-30T05:01:24.517Z,2.55
2022-11-30T05:02:26.314Z,2.38
2022-11-30T05:03:28.100Z,2.20
2022-11-30T05:04:29.998Z,1.92
2022-11-30T05:05:31.884Z,2.30
2022-11-30T05:06:33.632Z,2.53
2022-11-30T05:07:35.456Z,2.83
2022-11-30T05:08:37.153Z,2.20
2022-11-30T05:09:38.857Z,2.40
2022-11-30T05:10:40.669Z,1.95
2022-11-30T05:11:42.513Z,2.22
2022-11-30T05:12:44.445Z,1.90
2022-11-30T05:13:46.559Z,2.38
2022-11-30T05:14:48.737Z,2.08
2022-11-30T05:15:50.830Z,1.95
2022-11-30T05:16:52.729Z,2.25
2022-11-30T05:17:58.606Z,1.90
2022-11-30T05:19:00.276Z,1.90
2022-11-30T05:20:02.354Z,2.00
2022-11-30T05:21:04.221Z,1.73
2022-11-30T05:22:06.203Z,1.80
2022-11-30T05:23:07.962Z,1.75
2022-11-30T05:24:10.842Z,1.70
2022-11-30T05:25:12.581Z,2.10
2022-11-30T05:26:15.128Z,2.00
2022-11-30T05:27:22.377Z,1.88
2022-11-30T05:28:24.558Z,1.60
2022-11-30T05:29:26.449Z,1.80
2022-11-30T05:30:28.138Z,1.35
2022-11-30T05:31:30.302Z,1.85
2022-11-30T05:32:32.345Z,1.80
2022-11-30T05:33:34.124Z,1.92
2022-11-30T05:34:49.685Z,1.90
2022-11-30T05:35:52.612Z,1.73
2022-11-30T05:36:54.348Z,2.00
2022-11-30T05:37:56.019Z,2.08
2022-11-30T05:38:57.748Z,1.90
2022-11-30T05:39:59.471Z,1.67
2022-11-30T05:41:02.254Z,1.98
2022-11-30T05:42:03.990Z,1.85
2022-11-30T05:43:06.310Z,1.70
2022-11-30T05:44:09.046Z,2.15
2022-11-30T05:45:11.379Z,2.03
2022-11-30T05:46:13.089Z,1.98
2022-11-30T05:47:14.973Z,1.98
2022-11-30T05:48:16.777Z,1.85
2022-11-30T05:49:18.542Z,1.98
2022-11-30T05:50:20.810Z,1.77
2022-11-30T05:51:26.670Z,1.85
2022-11-30T05:52:28.348Z,1.70
2022-11-30T05:53:30.027Z,2.00
2022-11-30T05:54:31.713Z,1.90
2022-11-30T05:55:33.626Z,1.58
2022-11-30T05:56:35.393Z,1.70
2022-11-30T05:57:38.465Z,1.75
2022-11-30T05:58:40.732Z,1.55
2022-11-30T05:59:42.477Z,1.50
2022-11-30T06:00:44.233Z,1.60
2022-11-30T06:01:46.053Z,1.55
2022-11-30T06:02:48.079Z,1.67
2022-11-30T06:03:50.108Z,1.67
2022-11-30T06:04:51.768Z,1.73
2022-11-30T06:05:53.537Z,1.92
2022-11-30T06:06:58.181Z,1.52
2022-11-30T06:08:00.667Z,1.77
2022-11-30T06:09:02.627Z,1.67
2022-11-30T06:10:05.015Z,1.40
2022-11-30T06:11:07.233Z,1.80
2022-11-30T06:12:09.156Z,1.42
2022-11-30T06:13:10.960Z,1.90
2022-11-30T06:14:12.761Z,1.55
2022-11-30T06:15:14.513Z,1.42
2022-11-30T06:16:16.393Z,1.80
2022-11-30T06:17:18.190Z,1.25
2022-11-30T06:18:19.924Z,1.67
2022-11-30T06:19:21.643Z,1.52
2022-11-30T06:20:23.450Z,1.50
2022-11-30T06:21:25.245Z,1.60
2022-11-30T06:22:27.045Z,1.40
2022-11-30T06:23:29.182Z,1.42
2022-11-30T06:24:30.956Z,1.40
2022-11-30T06:25:32.743Z,1.63
2022-11-30T06:26:34.540Z,1.58
2022-11-30T06:27:36.270Z,1.58
2022-11-30T06:28:38.959Z,1.60
2022-11-30T06:29:40.693Z,1.42
2022-11-30T06:30:42.413Z,1.63
2022-11-30T06:31:44.361Z,1.92
2022-11-30T06:32:47.472Z,1.60
2022-11-30T06:33:49.239Z,1.65
2022-11-30T06:34:51.126Z,1.88
2022-11-30T06:35:52.949Z,1.50
2022-11-30T06:36:54.662Z,1.60
2022-11-30T06:37:57.474Z,1.40
2022-11-30T06:38:59.291Z,1.52
2022-11-30T06:40:08.566Z,1.70
2022-11-30T06:41:12.489Z,1.77
2022-11-30T06:42:14.338Z,1.77
2022-11-30T06:43:16.054Z,1.77
2022-11-30T06:44:17.717Z,1.33
2022-11-30T06:45:19.378Z,1.90
2022-11-30T06:46:22.245Z,1.77
2022-11-30T06:47:24.535Z,1.70
2022-11-30T06:48:26.261Z,1.50
2022-11-30T06:49:28.305Z,1.77
2022-11-30T06:50:30.110Z,1.75
2022-11-30T06:51:32.021Z,1.60
2022-11-30T06:52:34.127Z,1.48
2022-11-30T06:53:36.895Z,1.60
2022-11-30T06:54:38.683Z,1.40
2022-11-30T06:55:40.599Z,1.52
2022-11-30T06:56:42.404Z,1.70
2022-11-30T06:57:44.239Z,1.50
2022-11-30T06:58:46.049Z,1.60
2022-11-30T06:59:47.829Z,1.80
2022-11-30T07:00:49.551Z,1.67
2022-11-30T07:01:51.486Z,1.95
2022-11-30T07:02:53.255Z,1.73
2022-11-30T07:03:55.129Z,2.00
2022-11-30T07:04:56.840Z,1.73
2022-11-30T07:05:58.718Z,1.67
2022-11-30T07:07:00.369Z,1.80
2022-11-30T07:08:02.198Z,1.73
2022-11-30T07:09:04.023Z,1.92
2022-11-30T07:10:06.317Z,1.50
2022-11-30T07:11:09.779Z,2.00
2022-11-30T07:12:11.908Z,1.67
2022-11-30T07:13:16.061Z,1.65
2022-11-30T07:14:17.966Z,1.55
2022-11-30T07:15:19.712Z,1.80
2022-11-30T07:16:21.482Z,1.92
2022-11-30T07:17:23.417Z,2.00
2022-11-30T07:18:31.519Z,1.77
2022-11-30T07:19:36.985Z,1.63
2022-11-30T07:20:39.194Z,1.88
2022-11-30T07:21:40.869Z,2.10
2022-11-30T07:22:42.820Z,1.60
2022-11-30T07:24:03.243Z,2.25
2022-11-30T07:25:23.962Z,1.63
2022-11-30T07:26:26.081Z,2.03
2022-11-30T07:27:27.768Z,2.10
2022-11-30T07:28:29.466Z,1.88
2022-11-30T07:29:31.201Z,2.00
2022-11-30T07:30:32.903Z,2.20
2022-11-30T07:31:34.916Z,2.05
2022-11-30T07:32:36.766Z,2.00
2022-11-30T07:33:38.536Z,1.80
2022-11-30T07:34:40.300Z,2.10
2022-11-30T07:35:42.021Z,2.13
2022-11-30T07:36:43.769Z,2.40
2022-11-30T07:37:45.574Z,2.20
2022-11-30T07:38:47.600Z,2.35
2022-11-30T07:39:49.269Z,2.20
2022-11-30T07:40:51.184Z,2.55
2022-11-30T07:41:52.878Z,2.53
2022-11-30T07:42:57.851Z,2.50
2022-11-30T07:43:59.785Z,2.47
2022-11-30T07:45:01.567Z,2.80
2022-11-30T07:46:04.288Z,2.55
2022-11-30T07:47:05.985Z,2.42
2022-11-30T07:48:09.786Z,2.70
2022-11-30T07:49:11.552Z,2.50
2022-11-30T07:50:13.320Z,2.60
2022-11-30T07:51:16.353Z,2.45
2022-11-30T07:52:18.044Z,2.60
2022-11-30T07:53:19.841Z,2.42
2022-11-30T07:54:21.622Z,2.60
2022-11-30T07:55:24.068Z,2.42
2022-11-30T07:56:27.067Z,2.67
2022-11-30T07:57:28.767Z,2.90
2022-11-30T07:58:31.253Z,2.60
2022-11-30T07:59:32.977Z,2.53
2022-11-30T08:00:34.749Z,2.70
2022-11-30T08:01:36.952Z,2.60
2022-11-30T08:02:38.674Z,3.00
2022-11-30T08:03:40.458Z,2.65
2022-11-30T08:04:42.280Z,2.55
2022-11-30T08:05:43.997Z,2.55
2022-11-30T08:06:45.706Z,2.83
2022-11-30T08:07:51.451Z,3.17
2022-11-30T08:08:56.879Z,2.83
2022-11-30T08:09:58.585Z,3.28
2022-11-30T08:11:00.749Z,2.80
2022-11-30T08:12:02.853Z,3.35
2022-11-30T08:13:04.513Z,3.10
2022-11-30T08:14:06.204Z,3.25
2022-11-30T08:15:30.555Z,3.33
2022-11-30T08:16:31.238Z,3.30
2022-11-30T08:17:33.012Z,3.53
2022-11-30T08:18:34.928Z,3.35
2022-11-30T08:19:36.723Z,3.38
2022-11-30T08:20:38.578Z,3.17
2022-11-30T08:21:40.407Z,2.95
2022-11-30T08:22:42.435Z,3.50
2022-11-30T08:23:47.011Z,2.75
2022-11-30T08:24:49.055Z,2.92
2022-11-30T08:25:51.123Z,2.95
2022-11-30T08:26:53.290Z,2.90
2022-11-30T08:27:54.937Z,2.97
2022-11-30T08:28:58.357Z,2.60
2022-11-30T08:30:00.090Z,2.95
2022-11-30T08:31:06.965Z,3.00
2022-11-30T08:32:08.735Z,2.75
2022-11-30T08:33:10.515Z,2.90
2022-11-30T08:34:13.626Z,2.83
2022-11-30T08:35:15.319Z,2.83
2022-11-30T08:36:19.527Z,2.67
2022-11-30T08:37:21.241Z,3.13
2022-11-30T08:38:23.003Z,3.25
2022-11-30T08:39:27.882Z,2.58
2022-11-30T08:40:29.828Z,2.90
2022-11-30T08:41:32.450Z,3.35
2022-11-30T08:42:34.228Z,3.08
2022-11-30T08:43:35.991Z,3.00
2022-11-30T08:44:37.755Z,3.25
2022-11-30T08:45:39.425Z,3.40
2022-11-30T08:46:56.591Z,3.50
2022-11-30T08:47:58.300Z,3.30
2022-11-30T08:49:19.771Z,3.13
2022-11-30T08:50:22.133Z,3.10
2022-11-30T08:51:23.884Z,2.97
2022-11-30T08:52:25.755Z,2.85
2022-11-30T08:53:27.737Z,2.80
2022-11-30T08:54:29.504Z,3.05
2022-11-30T08:55:31.264Z,2.88
2022-11-30T08:56:33.091Z,3.15
2022-11-30T08:57:34.912Z,3.15
2022-11-30T08:58:38.438Z,3.00
2022-11-30T08:59:40.217Z,2.85
2022-11-30T09:00:42.001Z,3.30
2022-11-30T09:01:43.835Z,2.90
2022-11-30T09:02:45.620Z,3.30
2022-11-30T09:03:49.473Z,2.97
2022-11-30T09:04:51.915Z,3.03
2022-11-30T09:05:53.578Z,3.22
2022-11-30T09:06:59.160Z,3.22
2022-11-30T09:08:01.153Z,2.97
2022-11-30T09:09:02.941Z,3.45
2022-11-30T09:10:05.318Z,3.05
2022-11-30T09:11:09.889Z,3.13
2022-11-30T09:12:11.693Z,2.92
2022-11-30T09:13:13.361Z,2.92
2022-11-30T09:14:15.126Z,2.92
2022-11-30T09:15:17.012Z,3.05
2022-11-30T09:16:20.133Z,2.85
2022-11-30T09:17:21.913Z,3.10
2022-11-30T09:18:23.637Z,2.80
2022-11-30T09:19:25.765Z,2.53
2022-11-30T09:20:27.617Z,2.90
2022-11-30T09:21:29.524Z,2.78
2022-11-30T09:22:31.220Z,2.90
2022-11-30T09:23:33.126Z,2.63
2022-11-30T09:24:34.852Z,2.97
2022-11-30T09:25:36.626Z,3.10
2022-11-30T09:26:38.381Z,2.85
2022-11-30T09:27:40.055Z,2.90
2022-11-30T09:28:41.949Z,2.72
2022-11-30T09:29:43.653Z,2.90
2022-11-30T09:30:45.443Z,2.38
2022-11-30T09:31:49.141Z,2.40
2022-11-30T09:32:50.871Z,2.78
2022-11-30T09:33:55.191Z,2.88
2022-11-30T09:34:56.966Z,2.90
2022-11-30T09:36:00.449Z,2.85
2022-11-30T09:37:02.194Z,2.60
2022-11-30T09:38:05.225Z,2.83
2022-11-30T09:39:09.453Z,2.10
2022-11-30T09:40:13.753Z,2.00
2022-11-30T09:41:45.198Z,2.40
2022-11-30T09:43:11.833Z,2.10
2022-11-30T09:44:41.737Z,3.00
2022-11-30T09:45:54.750Z,2.50
2022-11-30T09:47:10.207Z,2.50
2022-11-30T09:48:33.288Z,2.78
2022-11-30T09:49:37.669Z,2.42
2022-11-30T09:50:45.007Z,2.20
2022-11-30T09:51:48.703Z,2.20
2022-11-30T09:52:55.308Z,2.15
2022-11-30T09:54:01.835Z,2.40
2022-11-30T09:55:09.599Z,2.75
2022-11-30T09:56:32.886Z,2.60
2022-11-30T09:57:44.309Z,2.40
2022-11-30T09:58:56.350Z,2.05
2022-11-30T10:00:10.520Z,2.50
2022-11-30T10:01:20.877Z,2.40
2022-11-30T10:02:28.428Z,2.40
2022-11-30T10:03:30.249Z,2.30
2022-11-30T10:04:32.020Z,2.60
2022-11-30T10:05:52.022Z,2.38
2022-11-30T10:07:19.358Z,2.78
2022-11-30T10:08:58.441Z,2.60
2022-11-30T10:10:32.164Z,2.50
2022-11-30T10:11:48.656Z,1.98
2022-11-30T10:12:56.375Z,2.38
2022-11-30T10:14:26.086Z,2.63
2022-11-30T10:15:54.478Z,2.05
2022-11-30T10:17:21.664Z,2.28
2022-11-30T10:18:42.261Z,2.47
2022-11-30T10:19:43.865Z,2.20
2022-11-30T10:20:55.731Z,2.03
2022-11-30T10:22:39.229Z,2.33
2022-11-30T10:23:59.624Z,2.17
2022-11-30T10:25:19.593Z,1.85
2022-11-30T10:26:30.259Z,2.20
2022-11-30T10:27:50.982Z,2.53
2022-11-30T10:28:56.657Z,2.13
2022-11-30T10:30:00.855Z,2.35
2022-11-30T10:31:03.469Z,2.15
2022-11-30T10:32:22.533Z,2.38
2022-11-30T10:33:38.196Z,2.40
2022-11-30T10:34:42.542Z,2.00
2022-11-30T10:35:53.025Z,1.85
2022-11-30T10:37:14.433Z,2.63
2022-11-30T10:38:26.636Z,1.80
2022-11-30T10:39:55.113Z,1.92
2022-11-30T10:41:03.656Z,2.38
2022-11-30T10:42:12.950Z,2.00
2022-11-30T10:43:19.217Z,2.10
2022-11-30T10:44:30.524Z,2.05
2022-11-30T10:45:33.241Z,1.77
2022-11-30T10:46:38.682Z,2.08
2022-11-30T10:47:47.804Z,1.80
2022-11-30T10:48:58.713Z,1.80
2022-11-30T10:50:00.497Z,2.00
2022-11-30T10:51:03.531Z,1.80
2022-11-30T10:52:09.508Z,1.90
2022-11-30T10:53:12.446Z,1.80
2022-11-30T10:54:17.221Z,1.60
2022-11-30T10:55:22.764Z,1.80
2022-11-30T10:56:25.768Z,1.88
2022-11-30T10:57:32.049Z,1.70
2022-11-30T10:58:41.408Z,1.52
2022-11-30T10:59:48.175Z,1.75
2022-11-30T11:01:07.804Z,1.60
2022-11-30T11:02:31.002Z,1.83
2022-11-30T11:03:33.880Z,1.70
2022-11-30T11:04:35.554Z,1.85
2022-11-30T11:05:37.476Z,1.80
2022-11-30T11:06:45.991Z,1.60
2022-11-30T11:07:52.725Z,1.65
2022-11-30T11:08:54.587Z,1.85
2022-11-30T11:09:56.370Z,1.92
2022-11-30T11:10:58.157Z,1.67
2022-11-30T11:12:27.525Z,2.28
2022-11-30T11:13:43.458Z,2.00
2022-11-30T11:14:45.560Z,1.88
2022-11-30T11:16:01.712Z,2.17
2022-11-30T11:17:06.809Z,2.33
2022-11-30T11:18:21.402Z,2.38
2022-11-30T11:19:26.457Z,2.15
2022-11-30T11:20:32.566Z,2.40
2022-11-30T11:21:35.984Z,2.22
2022-11-30T11:22:37.933Z,2.10
2022-11-30T11:23:41.808Z,2.22
2022-11-30T11:24:44.727Z,2.10
2022-11-30T11:25:53.188Z,2.10
2022-11-30T11:26:56.511Z,1.98
2022-11-30T11:28:06.360Z,2.58
2022-11-30T11:29:31.538Z,2.20
2022-11-30T11:30:33.720Z,2.30
2022-11-30T11:31:39.404Z,2.28
2022-11-30T11:32:41.201Z,2.20
2022-11-30T11:33:54.185Z,2.13
2022-11-30T11:34:57.929Z,2.35
2022-11-30T11:36:08.813Z,1.92
2022-11-30T11:37:28.966Z,1.90
2022-11-30T11:38:41.947Z,2.10
2022-11-30T11:39:43.791Z,2.30
2022-11-30T11:41:07.265Z,2.58
2022-11-30T11:42:22.513Z,2.00
2022-11-30T11:43:27.483Z,2.30
2022-11-30T11:44:29.330Z,1.88
2022-11-30T11:45:38.313Z,2.25
2022-11-30T11:47:01.367Z,2.17
2022-11-30T11:48:29.256Z,2.00
2022-11-30T11:49:38.817Z,2.05
2022-11-30T11:52:11.391Z,2.08
2022-11-30T11:53:24.672Z,2.10
2022-11-30T11:54:38.646Z,1.90
2022-11-30T11:55:42.352Z,2.13
2022-11-30T11:56:44.454Z,2.28
2022-11-30T11:57:54.770Z,2.03
2022-11-30T11:59:01.337Z,1.90
2022-11-30T12:00:25.371Z,2.10
2022-11-30T12:01:53.229Z,2.17
2022-11-30T12:03:34.093Z,2.20
2022-11-30T12:04:46.877Z,2.10
2022-11-30T12:05:51.635Z,2.20
2022-11-30T12:06:54.857Z,1.75
2022-11-30T12:08:28.784Z,2.17
2022-11-30T12:09:40.612Z,2.70
2022-11-30T12:10:52.238Z,2.42
2022-11-30T12:11:54.936Z,2.03
2022-11-30T12:12:58.891Z,2.10
2022-11-30T12:14:09.385Z,2.28
2022-11-30T12:15:14.899Z,2.20
2022-11-30T12:16:35.304Z,1.90
2022-11-30T12:17:50.365Z,2.13
2022-11-30T12:19:01.566Z,2.00
2022-11-30T12:20:33.934Z,2.33
2022-11-30T12:21:57.203Z,2.25
2022-11-30T12:23:12.881Z,2.15
2022-11-30T12:24:14.573Z,2.22
2022-11-30T12:25:26.789Z,2.05
2022-11-30T12:26:28.471Z,2.03
2022-11-30T12:27:56.134Z,2.00
2022-11-30T12:29:13.475Z,2.53
2022-11-30T12:30:49.461Z,2.10
2022-11-30T12:32:02.892Z,2.30
2022-11-30T12:33:15.506Z,2.38
2022-11-30T12:34:43.209Z,2.30
2022-11-30T12:36:00.037Z,2.03
2022-11-30T12:37:26.149Z,2.20
2022-11-30T12:39:08.140Z,2.15
2022-11-30T12:40:28.422Z,1.90
2022-11-30T12:41:53.606Z,2.15
2022-11-30T12:43:17.130Z,2.10
2022-11-30T12:44:42.716Z,2.30
2022-11-30T12:45:46.296Z,2.40
2022-11-30T12:47:26.746Z,2.20
2022-11-30T12:48:44.919Z,2.00
2022-11-30T12:49:46.935Z,2.03
2022-11-30T12:51:03.874Z,1.92
2022-11-30T12:52:36.492Z,2.00
2022-11-30T12:53:53.620Z,2.00
2022-11-30T12:55:26.681Z,2.25
2022-11-30T12:56:28.316Z,1.70
2022-11-30T12:58:08.234Z,2.30
2022-11-30T12:59:25.122Z,2.03
2022-11-30T13:00:37.763Z,1.90
2022-11-30T13:02:04.323Z,2.40
2022-11-30T13:03:31.049Z,2.22
2022-11-30T13:04:35.516Z,2.10
2022-11-30T13:05:46.306Z,2.55
2022-11-30T13:06:55.165Z,2.35
2022-11-30T13:08:15.126Z,2.22
2022-11-30T13:09:38.630Z,2.40
2022-11-30T13:10:46.862Z,2.25
2022-11-30T13:11:56.087Z,2.40
2022-11-30T13:13:01.318Z,2.30
2022-11-30T13:14:10.009Z,2.67
2022-11-30T13:15:22.042Z,2.17
2022-11-30T13:16:25.941Z,2.30
2022-11-30T13:17:27.855Z,2.50
2022-11-30T13:18:30.402Z,2.70
2022-11-30T13:19:47.418Z,2.60
2022-11-30T13:21:17.425Z,2.28
2022-11-30T13:22:44.152Z,2.80
2022-11-30T13:24:00.889Z,2.40
2022-11-30T13:25:18.384Z,2.50
2022-11-30T13:26:41.775Z,2.60
2022-11-30T13:27:55.661Z,2.40
2022-11-30T13:29:27.673Z,2.55
2022-11-30T13:30:37.377Z,2.58
2022-11-30T13:31:46.250Z,2.30
2022-11-30T13:32:57.793Z,2.70
2022-11-30T13:34:00.853Z,2.20
2022-11-30T13:35:30.426Z,2.30
2022-11-30T13:36:37.166Z,2.35
2022-11-30T13:37:39.438Z,2.05
2022-11-30T13:38:41.162Z,2.25
2022-11-30T13:39:58.467Z,2.13
2022-11-30T13:41:03.122Z,2.38
2022-11-30T13:42:07.649Z,2.42
2022-11-30T13:43:22.180Z,2.60
2022-11-30T13:44:34.988Z,2.35
2022-11-30T13:45:36.842Z,2.15
2022-11-30T13:46:47.701Z,2.20
2022-11-30T13:47:51.618Z,2.45
2022-11-30T13:49:23.370Z,2.47
2022-11-30T13:50:40.647Z,1.95
2022-11-30T13:51:42.640Z,2.15
2022-11-30T13:53:02.677Z,2.03
2022-11-30T13:54:43.377Z,2.03
2022-11-30T13:55:49.953Z,2.20
2022-11-30T13:56:51.841Z,2.33
2022-11-30T13:57:53.544Z,2.20
2022-11-30T13:59:23.451Z,2.10
2022-11-30T14:00:31.139Z,2.10
2022-11-30T14:01:33.114Z,2.40
2022-11-30T14:02:41.752Z,2.25
2022-11-30T14:03:43.643Z,2.30
2022-11-30T14:04:46.839Z,2.05
2022-11-30T14:05:53.863Z,2.03
2022-11-30T14:06:56.620Z,2.35
2022-11-30T14:08:01.423Z,1.90
2022-11-30T14:09:03.186Z,2.10
2022-11-30T14:10:27.524Z,2.05
2022-11-30T14:11:38.359Z,1.77
2022-11-30T14:12:48.623Z,2.00
2022-11-30T14:13:51.062Z,1.98
2022-11-30T14:14:52.809Z,1.90
2022-11-30T14:15:57.340Z,2.05
2022-11-30T14:16:59.593Z,2.38
2022-11-30T14:18:05.325Z,2.45
2022-11-30T14:19:07.122Z,2.05
2022-11-30T14:20:16.255Z,2.20
2022-11-30T14:21:24.097Z,2.85
2022-11-30T14:22:28.902Z,2.80
2022-11-30T14:23:48.137Z,2.60
2022-11-30T14:24:50.557Z,2.60
2022-11-30T14:25:55.066Z,2.63
2022-11-30T14:26:56.992Z,3.10
2022-11-30T14:27:58.794Z,3.10
2022-11-30T14:29:16.978Z,2.72
2022-11-30T14:30:22.072Z,3.13
2022-11-30T14:31:31.232Z,3.63
2022-11-30T14:32:45.064Z,3.22
2022-11-30T14:33:52.242Z,2.80
2022-11-30T14:35:02.805Z,2.95
2022-11-30T14:36:08.149Z,2.70
2022-11-30T14:37:18.465Z,3.45
2022-11-30T14:38:32.564Z,3.10
2022-11-30T14:39:43.061Z,2.58
2022-11-30T14:40:52.615Z,3.20
2022-11-30T14:41:55.004Z,3.30
2022-11-30T14:42:59.082Z,3.15